createdAt,value
2022-10-17T00:00:00.000Z,14.39
2022-10-17T00:15:00.000Z,14.64
2022-10-17T00:30:00.000Z,14.13
2022-10-17T00:45:00.000Z,13.83
2022-10-17T01:00:00.000Z,13.78
2022-10-17T01:15:00.000Z,13.8
2022-10-17T01:30:00.000Z,13.89
2022-10-17T01:45:00.000Z,14.44
2022-10-17T02:00:00.000Z,14.57
2022-10-17T02:15:00.000Z,14.77
2022-10-17T02:30:00.000Z,14.86
2022-10-17T02:45:00.000Z,14.7
2022-10-17T03:00:00.000Z,14.59
2022-10-17T03:15:00.000Z,14.37
2022-10-17T03:30:00.000Z,14.47
2022-10-17T03:45:00.000Z,14.34
2022-10-17T04:00:00.000Z,14.71
2022-10-17T04:15:00.000Z,14.86
2022-10-17T04:30:00.000Z,14.67
2022-10-17T04:45:00.000Z,14.51
2022-10-17T05:00:00.000Z,14.44
2022-10-17T05:15:00.000Z,14.17
2022-10-17T05:30:00.000Z,13.76
2022-10-17T05:45:00.000Z,13.83
2022-10-17T06:00:00.000Z,13.58
2022-10-17T06:15:00.000Z,14.52
2022-10-17T06:30:00.000Z,16.7
2022-10-17T06:45:00.000Z,19.9
2022-10-17T07:00:00.000Z,22.25
2022-10-17T07:15:00.000Z,22.52
2022-10-17T07:30:00.000Z,21.87
2022-10-17T07:45:00.000Z,22.61
2022-10-17T08:15:00.000Z,24.59
2022-10-17T08:15:00.000Z,24.94
2022-10-17T08:30:00.000Z,25.65
2022-10-17T08:45:00.000Z,25.43
2022-10-17T09:00:00.000Z,25.33
2022-10-17T09:15:00.000Z,25.69
2022-10-17T09:30:00.000Z,26.08
2022-10-17T09:45:00.000Z,26.22
2022-10-17T10:00:00.000Z,26.45
2022-10-17T10:15:00.000Z,26.27
2022-10-17T10:30:00.000Z,26.05
2022-10-17T10:45:00.000Z,26.15
2022-10-17T11:00:00.000Z,25.98
2022-10-17T11:15:00.000Z,25.85
2022-10-17T11:30:00.000Z,26.01
2022-10-17T11:45:00.000Z,25.83
2022-10-17T12:00:00.000Z,25.64
2022-10-17T12:15:00.000Z,25.34
2022-10-17T12:30:00.000Z,24.36
2022-10-17T12:45:00.000Z,24.15
2022-10-17T13:00:00.000Z,24.05
2022-10-17T13:15:00.000Z,23.78
2022-10-17T13:30:00.000Z,23.6
2022-10-17T13:45:00.000Z,23.46
2022-10-17T14:00:00.000Z,23.47
2022-10-17T14:15:00.000Z,23.41
2022-10-17T14:30:00.000Z,23.4
2022-10-17T14:45:00.000Z,23.26
2022-10-17T15:00:00.000Z,22.97
2022-10-17T15:15:00.000Z,22.6
2022-10-17T15:30:00.000Z,22.55
2022-10-17T15:45:00.000Z,22.04
2022-10-17T16:00:00.000Z,21.02
2022-10-17T16:15:00.000Z,20.19
2022-10-17T16:30:00.000Z,19.62
2022-10-17T16:45:00.000Z,19.09
2022-10-17T17:00:00.000Z,18.73
2022-10-17T17:15:00.000Z,18.28
2022-10-17T17:30:00.000Z,18
2022-10-17T17:45:00.000Z,17.96
2022-10-17T18:00:00.000Z,17.84
2022-10-17T18:15:00.000Z,17.41
2022-10-17T18:30:00.000Z,17.3
2022-10-17T18:45:00.000Z,17.18
2022-10-17T19:00:00.000Z,17.32
2022-10-17T19:15:00.000Z,17.5
2022-10-17T19:30:00.000Z,17.25
2022-10-17T19:45:00.000Z,16.53
2022-10-17T20:00:00.000Z,15.69
2022-10-17T20:15:00.000Z,15.35
2022-10-17T20:30:00.000Z,15.43
2022-10-17T20:45:00.000Z,15.16
2022-10-17T21:00:00.000Z,14.95
2022-10-17T21:30:00.000Z,14.31
2022-10-17T21:45:00.000Z,14.12
2022-10-17T22:00:00.000Z,13.97
2022-10-17T22:15:00.000Z,13.89
2022-10-17T22:30:00.000Z,13.97
2022-10-17T22:45:00.000Z,13.69
2022-10-17T23:00:00.000Z,13.57
2022-10-17T23:15:00.000Z,13.35
2022-10-17T23:30:00.000Z,13.29
2022-10-17T23:45:00.000Z,13.41
